sensor_id;sensor_type;location;lat;lon;timestamp;pressure;altitude;pressure_sealevel;temperature;humidity
56064;BME280;41940;52.880;13.012;2022-07-17T00:00:58;102028.13;;;10.99;100.00
56064;BME280;41940;52.880;13.012;2022-07-17T00:03:23;102029.47;;;10.83;100.00
56064;BME280;41940;52.880;13.012;2022-07-17T00:05:48;102018.63;;;11.16;100.00
56064;BME280;41940;52.880;13.012;2022-07-17T00:08:17;102013.09;;;11.17;100.00
56064;BME280;41940;52.880;13.012;2022-07-17T00:10:43;102016.22;;;10.92;100.00
56064;BME280;41940;52.880;13.012;2022-07-17T00:13:08;102025.50;;;10.87;100.00
56064;BME280;41940;52.880;13.012;2022-07-17T00:15:34;102021.19;;;10.54;100.00
56064;BME280;41940;52.880;13.012;2022-07-17T00:17:59;102028.84;;;10.80;100.00
56064;BME280;41940;52.880;13.012;2022-07-17T00:20:25;102018.84;;;10.61;100.00
56064;BME280;41940;52.880;13.012;2022-07-17T00:22:54;102023.88;;;10.96;100.00
56064;BME280;41940;52.880;13.012;2022-07-17T00:25:23;102025.06;;;10.82;100.00
56064;BME280;41940;52.880;13.012;2022-07-17T00:27:48;102027.53;;;10.74;100.00
56064;BME280;41940;52.880;13.012;2022-07-17T00:30:13;102025.84;;;10.52;100.00
56064;BME280;41940;52.880;13.012;2022-07-17T00:32:39;102024.59;;;10.77;100.00
56064;BME280;41940;52.880;13.012;2022-07-17T00:35:05;102030.09;;;10.54;100.00
56064;BME280;41940;52.880;13.012;2022-07-17T00:37:30;102022.31;;;10.72;100.00
56064;BME280;41940;52.880;13.012;2022-07-17T00:39:55;102026.13;;;10.70;100.00
56064;BME280;41940;52.880;13.012;2022-07-17T00:42:21;102020.59;;;10.50;100.00
56064;BME280;41940;52.880;13.012;2022-07-17T00:44:46;102014.19;;;10.30;100.00
56064;BME280;41940;52.880;13.012;2022-07-17T00:47:15;102013.22;;;10.64;100.00
56064;BME280;41940;52.880;13.012;2022-07-17T00:49:41;102011.13;;;10.35;100.00
56064;BME280;41940;52.880;13.012;2022-07-17T00:52:08;102012.31;;;10.53;100.00
56064;BME280;41940;52.880;13.012;2022-07-17T00:54:34;102009.06;;;10.71;100.00
56064;BME280;41940;52.880;13.012;2022-07-17T00:57:00;102006.13;;;10.41;100.00
56064;BME280;41940;52.880;13.012;2022-07-17T00:59:27;102010.13;;;10.15;100.00
56064;BME280;41940;52.880;13.012;2022-07-17T01:01:53;102015.28;;;10.06;100.00
56064;BME280;41940;52.880;13.012;2022-07-17T01:04:18;102014.16;;;10.09;100.00
56064;BME280;41940;52.880;13.012;2022-07-17T01:06:43;102010.53;;;10.31;100.00
56064;BME280;41940;52.880;13.012;2022-07-17T01:09:12;102012.38;;;10.42;100.00
56064;BME280;41940;52.880;13.012;2022-07-17T01:11:37;102014.84;;;10.55;100.00
56064;BME280;41940;52.880;13.012;2022-07-17T01:14:02;102014.16;;;10.09;100.00
56064;BME280;41940;52.880;13.012;2022-07-17T01:16:28;102005.81;;;9.91;100.00
56064;BME280;41940;52.880;13.012;2022-07-17T01:18:54;102016.09;;;10.07;100.00
56064;BME280;41940;52.880;13.012;2022-07-17T01:21:20;102009.91;;;10.06;100.00
56064;BME280;41940;52.880;13.012;2022-07-17T01:23:45;102008.81;;;10.09;100.00
56064;BME280;41940;52.880;13.012;2022-07-17T01:26:10;102016.16;;;9.95;100.00
56064;BME280;41940;52.880;13.012;2022-07-17T01:28:35;102017.56;;;10.11;100.00
56064;BME280;41940;52.880;13.012;2022-07-17T01:31:01;102013.25;;;9.87;100.00
56064;BME280;41940;52.880;13.012;2022-07-17T01:33:28;102013.13;;;9.89;100.00
56064;BME280;41940;52.880;13.012;2022-07-17T01:35:53;102022.78;;;9.57;100.00
56064;BME280;41940;52.880;13.012;2022-07-17T01:38:18;102011.63;;;9.52;100.00
56064;BME280;41940;52.880;13.012;2022-07-17T01:40:44;102017.09;;;9.39;100.00
56064;BME280;41940;52.880;13.012;2022-07-17T01:43:09;102015.59;;;9.69;100.00
56064;BME280;41940;52.880;13.012;2022-07-17T01:45:34;102016.84;;;9.54;100.00
56064;BME280;41940;52.880;13.012;2022-07-17T01:47:59;102015.88;;;9.55;100.00
56064;BME280;41940;52.880;13.012;2022-07-17T01:50:25;102020.47;;;9.53;100.00
56064;BME280;41940;52.880;13.012;2022-07-17T01:52:50;102020.41;;;9.87;100.00
56064;BME280;41940;52.880;13.012;2022-07-17T01:55:15;102018.41;;;9.56;100.00
56064;BME280;41940;52.880;13.012;2022-07-17T01:57:41;102012.94;;;9.24;100.00
56064;BME280;41940;52.880;13.012;2022-07-17T02:00:09;102017.56;;;9.33;100.00
56064;BME280;41940;52.880;13.012;2022-07-17T02:02:35;102009.53;;;9.33;100.00
56064;BME280;41940;52.880;13.012;2022-07-17T02:05:00;102010.53;;;9.43;100.00
56064;BME280;41940;52.880;13.012;2022-07-17T02:07:26;102007.59;;;9.46;100.00
56064;BME280;41940;52.880;13.012;2022-07-17T02:09:51;102007.47;;;9.59;100.00
56064;BME280;41940;52.880;13.012;2022-07-17T02:12:16;102002.13;;;9.48;100.00
56064;BME280;41940;52.880;13.012;2022-07-17T02:14:41;102002.72;;;9.51;100.00
56064;BME280;41940;52.880;13.012;2022-07-17T02:17:07;102002.38;;;9.33;100.00
56064;BME280;41940;52.880;13.012;2022-07-17T02:19:32;102005.53;;;9.27;100.00
56064;BME280;41940;52.880;13.012;2022-07-17T02:21:57;102006.38;;;9.28;100.00
56064;BME280;41940;52.880;13.012;2022-07-17T02:24:22;102011.59;;;9.29;100.00
56064;BME280;41940;52.880;13.012;2022-07-17T02:26:47;102013.44;;;9.17;100.00
56064;BME280;41940;52.880;13.012;2022-07-17T02:29:13;102017.47;;;9.23;100.00
56064;BME280;41940;52.880;13.012;2022-07-17T02:31:38;102018.66;;;9.42;100.00
56064;BME280;41940;52.880;13.012;2022-07-17T02:34:03;102015.88;;;9.32;100.00
56064;BME280;41940;52.880;13.012;2022-07-17T02:36:28;102017.47;;;9.12;100.00
56064;BME280;41940;52.880;13.012;2022-07-17T02:38:54;102020.34;;;8.97;100.00
56064;BME280;41940;52.880;13.012;2022-07-17T02:41:19;102021.81;;;9.01;100.00
56064;BME280;41940;52.880;13.012;2022-07-17T02:43:44;102024.00;;;9.08;100.00
56064;BME280;41940;52.880;13.012;2022-07-17T02:46:09;102020.47;;;9.07;100.00
56064;BME280;41940;52.880;13.012;2022-07-17T02:48:35;102019.84;;;8.81;100.00
56064;BME280;41940;52.880;13.012;2022-07-17T02:51:00;102021.34;;;9.08;100.00
56064;BME280;41940;52.880;13.012;2022-07-17T02:53:25;102021.09;;;8.99;100.00
56064;BME280;41940;52.880;13.012;2022-07-17T02:55:51;102029.88;;;9.35;100.00
56064;BME280;41940;52.880;13.012;2022-07-17T02:58:16;102024.88;;;9.31;100.00
56064;BME280;41940;52.880;13.012;2022-07-17T03:00:41;102020.97;;;9.24;100.00
56064;BME280;41940;52.880;13.012;2022-07-17T03:03:06;102029.94;;;9.00;100.00
56064;BME280;41940;52.880;13.012;2022-07-17T03:05:32;102021.31;;;8.96;100.00
56064;BME280;41940;52.880;13.012;2022-07-17T03:07:57;102021.47;;;9.06;100.00
56064;BME280;41940;52.880;13.012;2022-07-17T03:10:22;102026.09;;;9.04;100.00
56064;BME280;41940;52.880;13.012;2022-07-17T03:12:48;102024.97;;;9.07;100.00
56064;BME280;41940;52.880;13.012;2022-07-17T03:15:13;102027.78;;;9.05;100.00
56064;BME280;41940;52.880;13.012;2022-07-17T03:17:38;102030.75;;;8.78;100.00
56064;BME280;41940;52.880;13.012;2022-07-17T03:20:05;102032.06;;;8.61;100.00
56064;BME280;41940;52.880;13.012;2022-07-17T03:22:30;102041.28;;;8.68;100.00
56064;BME280;41940;52.880;13.012;2022-07-17T03:24:55;102040.09;;;8.72;100.00
56064;BME280;41940;52.880;13.012;2022-07-17T03:27:20;102049.75;;;8.86;100.00
56064;BME280;41940;52.880;13.012;2022-07-17T03:29:46;102046.19;;;8.74;100.00
56064;BME280;41940;52.880;13.012;2022-07-17T03:32:11;102053.59;;;8.70;100.00
56064;BME280;41940;52.880;13.012;2022-07-17T03:34:37;102054.78;;;8.66;100.00
56064;BME280;41940;52.880;13.012;2022-07-17T03:37:02;102054.44;;;8.47;100.00
56064;BME280;41940;52.880;13.012;2022-07-17T03:39:28;102058.34;;;8.78;100.00
56064;BME280;41940;52.880;13.012;2022-07-17T03:41:53;102059.97;;;8.92;100.00
56064;BME280;41940;52.880;13.012;2022-07-17T03:44:19;102068.22;;;9.00;100.00
56064;BME280;41940;52.880;13.012;2022-07-17T03:46:44;102070.44;;;8.95;100.00
56064;BME280;41940;52.880;13.012;2022-07-17T03:49:09;102068.41;;;8.74;100.00
56064;BME280;41940;52.880;13.012;2022-07-17T03:51:35;102076.69;;;8.71;100.00
56064;BME280;41940;52.880;13.012;2022-07-17T03:54:00;102082.13;;;8.70;100.00
56064;BME280;41940;52.880;13.012;2022-07-17T03:56:26;102077.66;;;8.70;100.00
56064;BME280;41940;52.880;13.012;2022-07-17T03:58:51;102080.03;;;8.98;100.00
56064;BME280;41940;52.880;13.012;2022-07-17T04:01:16;102085.72;;;8.93;100.00
56064;BME280;41940;52.880;13.012;2022-07-17T04:03:41;102083.41;;;8.88;100.00
56064;BME280;41940;52.880;13.012;2022-07-17T04:06:07;102089.72;;;8.87;100.00
56064;BME280;41940;52.880;13.012;2022-07-17T04:08:32;102090.72;;;8.98;100.00
56064;BME280;41940;52.880;13.012;2022-07-17T04:10:58;102096.34;;;8.70;100.00
56064;BME280;41940;52.880;13.012;2022-07-17T04:13:23;102102.16;;;9.00;100.00
56064;BME280;41940;52.880;13.012;2022-07-17T04:15:48;102095.88;;;9.12;100.00
56064;BME280;41940;52.880;13.012;2022-07-17T04:18:28;102098.19;;;9.28;100.00
56064;BME280;41940;52.880;13.012;2022-07-17T04:20:55;102110.22;;;9.23;100.00
56064;BME280;41940;52.880;13.012;2022-07-17T04:23:20;102104.63;;;9.26;100.00
56064;BME280;41940;52.880;13.012;2022-07-17T04:25:46;102114.97;;;9.30;100.00
56064;BME280;41940;52.880;13.012;2022-07-17T04:28:11;102113.53;;;9.26;100.00
56064;BME280;41940;52.880;13.012;2022-07-17T04:30:37;102117.44;;;9.68;100.00
56064;BME280;41940;52.880;13.012;2022-07-17T04:33:02;102126.06;;;9.48;100.00
56064;BME280;41940;52.880;13.012;2022-07-17T04:35:28;102118.41;;;9.55;100.00
56064;BME280;41940;52.880;13.012;2022-07-17T04:37:53;102117.44;;;9.68;100.00
56064;BME280;41940;52.880;13.012;2022-07-17T04:40:19;102116.34;;;9.47;100.00
56064;BME280;41940;52.880;13.012;2022-07-17T04:42:44;102119.88;;;9.71;100.00
56064;BME280;41940;52.880;13.012;2022-07-17T04:45:10;102120.09;;;10.13;100.00
56064;BME280;41940;52.880;13.012;2022-07-17T04:47:35;102118.75;;;10.19;100.00
56064;BME280;41940;52.880;13.012;2022-07-17T04:50:01;102121.66;;;10.38;100.00
56064;BME280;41940;52.880;13.012;2022-07-17T04:52:26;102120.06;;;10.68;100.00
56064;BME280;41940;52.880;13.012;2022-07-17T04:54:51;102107.59;;;10.46;100.00
56064;BME280;41940;52.880;13.012;2022-07-17T04:57:16;102119.56;;;10.42;100.00
56064;BME280;41940;52.880;13.012;2022-07-17T04:59:42;102107.75;;;10.45;100.00
56064;BME280;41940;52.880;13.012;2022-07-17T05:02:07;102114.91;;;10.33;100.00
56064;BME280;41940;52.880;13.012;2022-07-17T05:04:32;102128.50;;;10.64;100.00
56064;BME280;41940;52.880;13.012;2022-07-17T05:06:57;102112.06;;;10.89;100.00
56064;BME280;41940;52.880;13.012;2022-07-17T05:09:23;102106.78;;;11.21;100.00
56064;BME280;41940;52.880;13.012;2022-07-17T05:11:48;102110.50;;;11.29;100.00
56064;BME280;41940;52.880;13.012;2022-07-17T05:14:13;102104.97;;;11.52;100.00
56064;BME280;41940;52.880;13.012;2022-07-17T05:16:38;102100.31;;;11.54;100.00
56064;BME280;41940;52.880;13.012;2022-07-17T05:19:04;102112.25;;;11.71;100.00
56064;BME280;41940;52.880;13.012;2022-07-17T05:21:29;102107.44;;;11.75;100.00
56064;BME280;41940;52.880;13.012;2022-07-17T05:23:55;102100.97;;;12.18;100.00
56064;BME280;41940;52.880;13.012;2022-07-17T05:26:20;102108.47;;;12.34;100.00
56064;BME280;41940;52.880;13.012;2022-07-17T05:28:45;102104.81;;;12.35;100.00
56064;BME280;41940;52.880;13.012;2022-07-17T05:31:10;102114.88;;;12.43;100.00
56064;BME280;41940;52.880;13.012;2022-07-17T05:33:35;102109.06;;;12.57;100.00
56064;BME280;41940;52.880;13.012;2022-07-17T05:36:01;102113.47;;;12.68;100.00
56064;BME280;41940;52.880;13.012;2022-07-17T05:38:26;102118.97;;;12.77;100.00
56064;BME280;41940;52.880;13.012;2022-07-17T05:40:51;102124.22;;;12.78;100.00
56064;BME280;41940;52.880;13.012;2022-07-17T05:43:16;102126.19;;;13.06;100.00
56064;BME280;41940;52.880;13.012;2022-07-17T05:45:42;102130.13;;;13.21;100.00
56064;BME280;41940;52.880;13.012;2022-07-17T05:48:07;102122.19;;;13.19;100.00
56064;BME280;41940;52.880;13.012;2022-07-17T05:50:33;102121.19;;;13.21;100.00
56064;BME280;41940;52.880;13.012;2022-07-17T05:52:58;102117.38;;;13.23;100.00
56064;BME280;41940;52.880;13.012;2022-07-17T05:55:23;102121.78;;;13.14;100.00
56064;BME280;41940;52.880;13.012;2022-07-17T05:57:49;102121.63;;;13.26;100.00
56064;BME280;41940;52.880;13.012;2022-07-17T06:00:14;102125.47;;;13.23;100.00
56064;BME280;41940;52.880;13.012;2022-07-17T06:02:39;102126.69;;;13.48;100.00
56064;BME280;41940;52.880;13.012;2022-07-17T06:05:04;102126.31;;;13.71;100.00
56064;BME280;41940;52.880;13.012;2022-07-17T06:07:30;102124.97;;;13.57;100.00
56064;BME280;41940;52.880;13.012;2022-07-17T06:09:55;102137.69;;;13.65;100.00
56064;BME280;41940;52.880;13.012;2022-07-17T06:12:20;102136.47;;;13.87;100.00
56064;BME280;41940;52.880;13.012;2022-07-17T06:14:45;102137.09;;;13.99;100.00
56064;BME280;41940;52.880;13.012;2022-07-17T06:17:11;102135.91;;;13.84;100.00
56064;BME280;41940;52.880;13.012;2022-07-17T06:19:36;102139.81;;;13.99;100.00
56064;BME280;41940;52.880;13.012;2022-07-17T06:22:01;102144.81;;;14.22;100.00
56064;BME280;41940;52.880;13.012;2022-07-17T06:24:26;102150.00;;;14.33;100.00
56064;BME280;41940;52.880;13.012;2022-07-17T06:26:51;102141.97;;;14.41;100.00
56064;BME280;41940;52.880;13.012;2022-07-17T06:29:17;102149.66;;;14.36;100.00
56064;BME280;41940;52.880;13.012;2022-07-17T06:31:42;102141.91;;;14.33;100.00
56064;BME280;41940;52.880;13.012;2022-07-17T06:34:07;102137.00;;;14.19;100.00
56064;BME280;41940;52.880;13.012;2022-07-17T06:36:32;102142.97;;;14.40;100.00
56064;BME280;41940;52.880;13.012;2022-07-17T06:38:58;102151.00;;;14.50;100.00
56064;BME280;41940;52.880;13.012;2022-07-17T06:41:23;102147.38;;;14.41;100.00
56064;BME280;41940;52.880;13.012;2022-07-17T06:43:48;102149.59;;;14.28;100.00
56064;BME280;41940;52.880;13.012;2022-07-17T06:46:13;102146.31;;;14.52;100.00
56064;BME280;41940;52.880;13.012;2022-07-17T06:48:38;102160.16;;;14.39;100.00
56064;BME280;41940;52.880;13.012;2022-07-17T06:51:04;102164.19;;;14.53;100.00
56064;BME280;41940;52.880;13.012;2022-07-17T06:53:29;102166.19;;;14.51;100.00
56064;BME280;41940;52.880;13.012;2022-07-17T06:55:54;102156.44;;;14.68;100.00
56064;BME280;41940;52.880;13.012;2022-07-17T06:58:19;102165.25;;;14.43;100.00
56064;BME280;41940;52.880;13.012;2022-07-17T07:00:44;102166.50;;;14.66;100.00
56064;BME280;41940;52.880;13.012;2022-07-17T07:03:10;102173.34;;;14.61;100.00
56064;BME280;41940;52.880;13.012;2022-07-17T07:05:35;102168.38;;;14.66;100.00
56064;BME280;41940;52.880;13.012;2022-07-17T07:08:00;102177.25;;;14.76;100.00
56064;BME280;41940;52.880;13.012;2022-07-17T07:10:26;102173.91;;;14.82;100.00
56064;BME280;41940;52.880;13.012;2022-07-17T07:12:51;102178.19;;;14.85;100.00
56064;BME280;41940;52.880;13.012;2022-07-17T07:15:17;102173.72;;;14.94;100.00
56064;BME280;41940;52.880;13.012;2022-07-17T07:17:42;102173.25;;;14.98;100.00
56064;BME280;41940;52.880;13.012;2022-07-17T07:20:08;102175.25;;;14.78;100.00
56064;BME280;41940;52.880;13.012;2022-07-17T07:22:33;102182.69;;;14.66;100.00
56064;BME280;41940;52.880;13.012;2022-07-17T07:24:59;102182.81;;;14.75;100.00
56064;BME280;41940;52.880;13.012;2022-07-17T07:27:24;102186.50;;;14.74;100.00
56064;BME280;41940;52.880;13.012;2022-07-17T07:29:49;102186.50;;;14.74;100.00
56064;BME280;41940;52.880;13.012;2022-07-17T07:32:15;102185.13;;;14.88;100.00
56064;BME280;41940;52.880;13.012;2022-07-17T07:34:40;102182.94;;;15.09;100.00
56064;BME280;41940;52.880;13.012;2022-07-17T07:37:05;102185.31;;;15.12;99.76
56064;BME280;41940;52.880;13.012;2022-07-17T07:39:30;102185.63;;;15.09;100.00
56064;BME280;41940;52.880;13.012;2022-07-17T07:41:56;102184.03;;;15.16;100.00
56064;BME280;41940;52.880;13.012;2022-07-17T07:44:21;102183.97;;;15.35;99.24
56064;BME280;41940;52.880;13.012;2022-07-17T07:46:46;102182.63;;;15.57;99.10
56064;BME280;41940;52.880;13.012;2022-07-17T07:49:11;102185.16;;;15.32;96.78
56064;BME280;41940;52.880;13.012;2022-07-17T07:51:37;102190.31;;;15.43;100.00
56064;BME280;41940;52.880;13.012;2022-07-17T07:54:02;102197.53;;;15.43;98.10
56064;BME280;41940;52.880;13.012;2022-07-17T07:56:27;102199.81;;;15.29;98.01
56064;BME280;41940;52.880;13.012;2022-07-17T07:58:52;102197.78;;;15.31;95.41
56064;BME280;41940;52.880;13.012;2022-07-17T08:01:18;102200.38;;;15.33;96.66
56064;BME280;41940;52.880;13.012;2022-07-17T08:03:43;102200.09;;;15.44;98.27
56064;BME280;41940;52.880;13.012;2022-07-17T08:06:08;102204.59;;;15.36;95.75
56064;BME280;41940;52.880;13.012;2022-07-17T08:08:33;102197.06;;;15.21;95.33
56064;BME280;41940;52.880;13.012;2022-07-17T08:10:59;102207.06;;;15.29;94.14
56064;BME280;41940;52.880;13.012;2022-07-17T08:13:24;102203.94;;;15.42;92.32
56064;BME280;41940;52.880;13.012;2022-07-17T08:15:49;102202.72;;;15.54;91.77
56064;BME280;41940;52.880;13.012;2022-07-17T08:18:15;102198.34;;;16.22;92.99
56064;BME280;41940;52.880;13.012;2022-07-17T08:20:40;102198.94;;;16.00;89.49
56064;BME280;41940;52.880;13.012;2022-07-17T08:23:05;102201.34;;;16.54;91.39
56064;BME280;41940;52.880;13.012;2022-07-17T08:25:31;102208.31;;;16.14;89.97
56064;BME280;41940;52.880;13.012;2022-07-17T08:27:56;102205.59;;;16.14;92.34
56064;BME280;41940;52.880;13.012;2022-07-17T08:30:21;102207.22;;;15.98;92.19
56064;BME280;41940;52.880;13.012;2022-07-17T08:32:47;102208.09;;;15.81;92.48
56064;BME280;41940;52.880;13.012;2022-07-17T08:35:12;102214.59;;;15.70;91.42
56064;BME280;41940;52.880;13.012;2022-07-17T08:37:44;102210.63;;;15.82;90.15
56064;BME280;41940;52.880;13.012;2022-07-17T08:40:14;102210.44;;;16.02;89.31
56064;BME280;41940;52.880;13.012;2022-07-17T08:42:40;102215.06;;;16.18;89.85
56064;BME280;41940;52.880;13.012;2022-07-17T08:45:08;102200.22;;;15.87;90.43
56064;BME280;41940;52.880;13.012;2022-07-17T08:47:33;102215.75;;;15.85;88.44
56064;BME280;41940;52.880;13.012;2022-07-17T08:49:59;102215.47;;;16.31;88.22
56064;BME280;41940;52.880;13.012;2022-07-17T08:52:24;102212.72;;;16.82;85.51
56064;BME280;41940;52.880;13.012;2022-07-17T08:54:49;102219.97;;;16.82;85.34
56064;BME280;41940;52.880;13.012;2022-07-17T08:57:15;102218.31;;;16.89;85.45
56064;BME280;41940;52.880;13.012;2022-07-17T08:59:40;102217.81;;;16.26;86.29
56064;BME280;41940;52.880;13.012;2022-07-17T09:02:06;102211.16;;;16.12;88.07
56064;BME280;41940;52.880;13.012;2022-07-17T09:04:31;102211.63;;;15.99;87.56
56064;BME280;41940;52.880;13.012;2022-07-17T09:07:05;102218.97;;;16.23;90.29
56064;BME280;41940;52.880;13.012;2022-07-17T09:09:31;102221.56;;;15.99;89.57
56064;BME280;41940;52.880;13.012;2022-07-17T09:11:59;102209.34;;;16.29;88.63
56064;BME280;41940;52.880;13.012;2022-07-17T09:14:24;102208.78;;;16.52;86.21
56064;BME280;41940;52.880;13.012;2022-07-17T09:17:00;102205.44;;;16.83;85.36
56064;BME280;41940;52.880;13.012;2022-07-17T09:22:03;102203.59;;;17.41;82.19
56064;BME280;41940;52.880;13.012;2022-07-17T09:24:37;102202.97;;;18.04;84.17
56064;BME280;41940;52.880;13.012;2022-07-17T09:27:02;102203.25;;;17.61;81.80
56064;BME280;41940;52.880;13.012;2022-07-17T09:29:27;102196.97;;;17.69;82.43
56064;BME280;41940;52.880;13.012;2022-07-17T09:31:53;102191.88;;;17.66;79.69
56064;BME280;41940;52.880;13.012;2022-07-17T09:34:18;102186.88;;;17.94;80.74
56064;BME280;41940;52.880;13.012;2022-07-17T09:36:44;102196.34;;;17.42;80.34
56064;BME280;41940;52.880;13.012;2022-07-17T09:39:09;102194.22;;;17.77;78.92
56064;BME280;41940;52.880;13.012;2022-07-17T09:41:34;102196.94;;;17.85;80.13
56064;BME280;41940;52.880;13.012;2022-07-17T09:44:01;102197.50;;;17.64;79.30
56064;BME280;41940;52.880;13.012;2022-07-17T09:46:28;102199.84;;;17.75;81.53
56064;BME280;41940;52.880;13.012;2022-07-17T09:48:59;102197.50;;;17.64;79.86
56064;BME280;41940;52.880;13.012;2022-07-17T09:51:26;102193.75;;;17.57;77.32
56064;BME280;41940;52.880;13.012;2022-07-17T09:53:56;102201.81;;;17.90;76.95
56064;BME280;41940;52.880;13.012;2022-07-17T09:56:23;102193.44;;;17.60;76.08
56064;BME280;41940;52.880;13.012;2022-07-17T09:58:50;102191.78;;;18.07;77.29
56064;BME280;41940;52.880;13.012;2022-07-17T10:01:16;102196.22;;;18.00;75.00
56064;BME280;41940;52.880;13.012;2022-07-17T10:03:42;102198.41;;;18.04;75.65
56064;BME280;41940;52.880;13.012;2022-07-17T10:06:09;102183.19;;;18.35;75.64
56064;BME280;41940;52.880;13.012;2022-07-17T10:08:35;102198.72;;;18.18;76.69
56064;BME280;41940;52.880;13.012;2022-07-17T10:11:00;102206.75;;;18.34;77.96
56064;BME280;41940;52.880;13.012;2022-07-17T10:13:26;102192.50;;;17.92;77.11
56064;BME280;41940;52.880;13.012;2022-07-17T10:15:52;102192.25;;;18.19;76.11
56064;BME280;41940;52.880;13.012;2022-07-17T10:18:17;102181.88;;;18.54;75.06
56064;BME280;41940;52.880;13.012;2022-07-17T10:20:45;102185.00;;;18.97;76.53
56064;BME280;41940;52.880;13.012;2022-07-17T10:23:11;102182.06;;;18.76;71.22
56064;BME280;41940;52.880;13.012;2022-07-17T10:25:37;102179.97;;;19.09;71.75
56064;BME280;41940;52.880;13.012;2022-07-17T10:28:02;102185.50;;;19.01;71.18
56064;BME280;41940;52.880;13.012;2022-07-17T10:30:28;102184.81;;;19.37;71.27
56064;BME280;41940;52.880;13.012;2022-07-17T10:32:58;102195.06;;;19.50;70.02
56064;BME280;41940;52.880;13.012;2022-07-17T10:35:24;102194.03;;;19.51;70.70
56064;BME280;41940;52.880;13.012;2022-07-17T10:37:50;102197.84;;;19.27;69.55
56064;BME280;41940;52.880;13.012;2022-07-17T10:40:26;102197.31;;;19.08;70.76
56064;BME280;41940;52.880;13.012;2022-07-17T10:42:55;102194.34;;;19.18;70.00
56064;BME280;41940;52.880;13.012;2022-07-17T10:45:28;102189.00;;;19.93;66.97
56064;BME280;41940;52.880;13.012;2022-07-17T10:48:08;102192.66;;;20.15;67.97
56064;BME280;41940;52.880;13.012;2022-07-17T10:50:41;102193.69;;;19.99;67.20
56064;BME280;41940;52.880;13.012;2022-07-17T10:53:23;102197.19;;;19.93;67.36
56064;BME280;41940;52.880;13.012;2022-07-17T10:55:50;102200.75;;;20.09;67.16
56064;BME280;41940;52.880;13.012;2022-07-17T10:58:17;102187.13;;;19.94;66.60
56064;BME280;41940;52.880;13.012;2022-07-17T11:00:43;102183.50;;;20.60;66.44
56064;BME280;41940;52.880;13.012;2022-07-17T11:03:09;102189.00;;;20.23;65.37
56064;BME280;41940;52.880;13.012;2022-07-17T11:05:34;102185.53;;;20.14;64.74
56064;BME280;41940;52.880;13.012;2022-07-17T11:08:00;102189.09;;;20.51;66.62
56064;BME280;41940;52.880;13.012;2022-07-17T11:10:26;102185.84;;;20.41;63.62
56064;BME280;41940;52.880;13.012;2022-07-17T11:12:53;102190.22;;;20.05;62.72
56064;BME280;41940;52.880;13.012;2022-07-17T11:15:18;102183.94;;;19.75;64.35
56064;BME280;41940;52.880;13.012;2022-07-17T11:17:47;102179.94;;;20.38;64.22
56064;BME280;41940;52.880;13.012;2022-07-17T11:20:13;102187.38;;;20.14;63.26
56064;BME280;41940;52.880;13.012;2022-07-17T11:22:38;102183.78;;;20.65;63.18
56064;BME280;41940;52.880;13.012;2022-07-17T11:25:04;102197.41;;;20.65;61.61
56064;BME280;41940;52.880;13.012;2022-07-17T11:27:30;102185.28;;;20.67;62.22
56064;BME280;41940;52.880;13.012;2022-07-17T11:29:57;102195.88;;;20.99;61.72
56064;BME280;41940;52.880;13.012;2022-07-17T11:32:23;102194.63;;;21.23;62.57
56064;BME280;41940;52.880;13.012;2022-07-17T11:34:48;102188.22;;;20.88;61.88
56064;BME280;41940;52.880;13.012;2022-07-17T11:37:14;102183.66;;;21.67;61.22
56064;BME280;41940;52.880;13.012;2022-07-17T11:39:40;102195.78;;;21.36;60.85
56064;BME280;41940;52.880;13.012;2022-07-17T11:42:10;102189.47;;;21.99;61.29
56064;BME280;41940;52.880;13.012;2022-07-17T11:44:35;102191.00;;;21.44;59.40
56064;BME280;41940;52.880;13.012;2022-07-17T11:47:01;102184.53;;;21.81;59.41
56064;BME280;41940;52.880;13.012;2022-07-17T11:49:27;102177.28;;;21.95;59.62
56064;BME280;41940;52.880;13.012;2022-07-17T11:51:55;102180.28;;;21.36;56.83
56064;BME280;41940;52.880;13.012;2022-07-17T11:54:20;102185.31;;;21.39;57.54
56064;BME280;41940;52.880;13.012;2022-07-17T11:56:53;102177.66;;;21.85;59.10
56064;BME280;41940;52.880;13.012;2022-07-17T11:59:26;102177.16;;;22.16;57.31
56064;BME280;41940;52.880;13.012;2022-07-17T12:01:52;102183.22;;;22.67;57.45
56064;BME280;41940;52.880;13.012;2022-07-17T12:04:17;102176.72;;;22.06;57.21
56064;BME280;41940;52.880;13.012;2022-07-17T12:06:43;102179.28;;;22.21;57.70
56064;BME280;41940;52.880;13.012;2022-07-17T12:09:09;102171.19;;;22.48;56.58
56064;BME280;41940;52.880;13.012;2022-07-17T12:11:47;102174.84;;;23.09;54.97
56064;BME280;41940;52.880;13.012;2022-07-17T12:14:12;102164.72;;;22.69;53.82
56064;BME280;41940;52.880;13.012;2022-07-17T12:16:38;102161.38;;;22.80;56.57
56064;BME280;41940;52.880;13.012;2022-07-17T12:19:07;102163.28;;;23.07;55.18
56064;BME280;41940;52.880;13.012;2022-07-17T12:24:32;102150.84;;;23.38;54.28
56064;BME280;41940;52.880;13.012;2022-07-17T12:26:58;102151.75;;;24.43;54.57
56064;BME280;41940;52.880;13.012;2022-07-17T12:29:24;102156.72;;;23.62;54.65
56064;BME280;41940;52.880;13.012;2022-07-17T12:34:36;102147.31;;;23.31;54.26
56064;BME280;41940;52.880;13.012;2022-07-17T12:37:01;102144.34;;;23.19;53.89